sensor_id;sensor_type;location;lat;lon;timestamp;P1;durP1;ratioP1;P2;durP2;ratioP2
38162;SDS011;23977;53.078;18.248;2024-02-21T00:00:49;18.45;;;5.68;;
38162;SDS011;23977;53.078;18.248;2024-02-21T00:03:35;20.92;;;5.97;;
38162;SDS011;23977;53.078;18.248;2024-02-21T00:06:00;17.70;;;6.20;;
38162;SDS011;23977;53.078;18.248;2024-02-21T00:08:26;15.43;;;5.60;;
38162;SDS011;23977;53.078;18.248;2024-02-21T00:10:52;19.65;;;5.68;;
38162;SDS011;23977;53.078;18.248;2024-02-21T00:13:17;14.25;;;5.45;;
38162;SDS011;23977;53.078;18.248;2024-02-21T00:15:43;15.70;;;5.57;;
38162;SDS011;23977;53.078;18.248;2024-02-21T00:18:09;14.77;;;5.38;;
38162;SDS011;23977;53.078;18.248;2024-02-21T00:20:36;15.57;;;5.50;;
38162;SDS011;23977;53.078;18.248;2024-02-21T00:23:02;15.13;;;5.60;;
38162;SDS011;23977;53.078;18.248;2024-02-21T00:25:28;16.50;;;5.65;;
38162;SDS011;23977;53.078;18.248;2024-02-21T00:27:54;13.60;;;5.30;;
38162;SDS011;23977;53.078;18.248;2024-02-21T00:30:20;14.93;;;5.50;;
38162;SDS011;23977;53.078;18.248;2024-02-21T00:32:46;14.20;;;5.68;;
38162;SDS011;23977;53.078;18.248;2024-02-21T00:35:12;18.45;;;5.90;;
38162;SDS011;23977;53.078;18.248;2024-02-21T00:37:37;14.07;;;5.78;;
38162;SDS011;23977;53.078;18.248;2024-02-21T00:40:03;15.73;;;5.63;;
38162;SDS011;23977;53.078;18.248;2024-02-21T00:42:30;16.27;;;6.25;;
38162;SDS011;23977;53.078;18.248;2024-02-21T00:44:56;15.60;;;6.10;;
38162;SDS011;23977;53.078;18.248;2024-02-21T00:47:22;17.02;;;6.10;;
38162;SDS011;23977;53.078;18.248;2024-02-21T00:49:47;18.13;;;6.20;;
38162;SDS011;23977;53.078;18.248;2024-02-21T00:52:13;17.02;;;6.20;;
38162;SDS011;23977;53.078;18.248;2024-02-21T00:54:39;15.82;;;5.90;;
38162;SDS011;23977;53.078;18.248;2024-02-21T00:57:04;17.25;;;5.63;;
38162;SDS011;23977;53.078;18.248;2024-02-21T00:59:30;17.48;;;6.15;;
38162;SDS011;23977;53.078;18.248;2024-02-21T01:01:56;15.43;;;5.97;;
38162;SDS011;23977;53.078;18.248;2024-02-21T01:04:21;18.85;;;6.00;;
38162;SDS011;23977;53.078;18.248;2024-02-21T01:06:47;16.98;;;6.45;;
38162;SDS011;23977;53.078;18.248;2024-02-21T01:09:12;17.75;;;6.25;;
38162;SDS011;23977;53.078;18.248;2024-02-21T01:11:38;16.38;;;6.40;;
38162;SDS011;23977;53.078;18.248;2024-02-21T01:14:04;16.58;;;6.03;;
38162;SDS011;23977;53.078;18.248;2024-02-21T01:16:29;16.08;;;6.45;;
38162;SDS011;23977;53.078;18.248;2024-02-21T01:18:55;13.93;;;6.43;;
38162;SDS011;23977;53.078;18.248;2024-02-21T01:21:21;14.57;;;6.80;;
38162;SDS011;23977;53.078;18.248;2024-02-21T01:23:46;20.58;;;7.40;;
38162;SDS011;23977;53.078;18.248;2024-02-21T01:26:12;18.90;;;6.90;;
38162;SDS011;23977;53.078;18.248;2024-02-21T01:28:40;18.65;;;6.85;;
38162;SDS011;23977;53.078;18.248;2024-02-21T01:31:07;19.02;;;7.78;;
38162;SDS011;23977;53.078;18.248;2024-02-21T01:33:33;17.05;;;7.15;;
38162;SDS011;23977;53.078;18.248;2024-02-21T01:36:03;21.50;;;7.15;;
38162;SDS011;23977;53.078;18.248;2024-02-21T01:38:32;20.27;;;7.25;;
38162;SDS011;23977;53.078;18.248;2024-02-21T01:40:58;21.85;;;7.47;;
38162;SDS011;23977;53.078;18.248;2024-02-21T01:43:24;20.65;;;7.88;;
38162;SDS011;23977;53.078;18.248;2024-02-21T01:45:50;22.30;;;8.30;;
38162;SDS011;23977;53.078;18.248;2024-02-21T01:48:24;24.63;;;8.50;;
38162;SDS011;23977;53.078;18.248;2024-02-21T01:50:50;23.00;;;8.73;;
38162;SDS011;23977;53.078;18.248;2024-02-21T01:53:18;25.25;;;7.72;;
38162;SDS011;23977;53.078;18.248;2024-02-21T01:55:46;21.73;;;8.20;;
38162;SDS011;23977;53.078;18.248;2024-02-21T01:58:13;24.27;;;7.82;;
38162;SDS011;23977;53.078;18.248;2024-02-21T02:00:40;19.05;;;7.28;;
38162;SDS011;23977;53.078;18.248;2024-02-21T02:03:07;26.60;;;7.60;;
38162;SDS011;23977;53.078;18.248;2024-02-21T02:05:35;20.85;;;7.60;;
38162;SDS011;23977;53.078;18.248;2024-02-21T02:08:01;23.35;;;7.85;;
38162;SDS011;23977;53.078;18.248;2024-02-21T02:10:27;21.80;;;7.32;;
38162;SDS011;23977;53.078;18.248;2024-02-21T02:12:53;24.73;;;8.60;;
38162;SDS011;23977;53.078;18.248;2024-02-21T02:15:18;26.98;;;8.32;;
38162;SDS011;23977;53.078;18.248;2024-02-21T02:17:44;22.10;;;8.07;;
38162;SDS011;23977;53.078;18.248;2024-02-21T02:20:10;24.58;;;8.95;;
38162;SDS011;23977;53.078;18.248;2024-02-21T02:22:36;26.30;;;9.02;;
38162;SDS011;23977;53.078;18.248;2024-02-21T02:25:04;23.95;;;9.15;;
38162;SDS011;23977;53.078;18.248;2024-02-21T02:27:30;23.40;;;9.02;;
38162;SDS011;23977;53.078;18.248;2024-02-21T02:29:56;28.80;;;9.95;;
38162;SDS011;23977;53.078;18.248;2024-02-21T02:32:21;27.30;;;9.60;;
38162;SDS011;23977;53.078;18.248;2024-02-21T02:34:47;22.60;;;8.60;;
38162;SDS011;23977;53.078;18.248;2024-02-21T02:37:13;28.90;;;9.38;;
38162;SDS011;23977;53.078;18.248;2024-02-21T02:39:39;29.25;;;9.88;;
38162;SDS011;23977;53.078;18.248;2024-02-21T02:42:04;24.00;;;9.15;;
38162;SDS011;23977;53.078;18.248;2024-02-21T02:44:30;28.58;;;9.45;;
38162;SDS011;23977;53.078;18.248;2024-02-21T02:46:55;24.45;;;8.82;;
38162;SDS011;23977;53.078;18.248;2024-02-21T02:49:21;28.10;;;9.23;;
38162;SDS011;23977;53.078;18.248;2024-02-21T02:51:47;28.08;;;9.40;;
38162;SDS011;23977;53.078;18.248;2024-02-21T02:54:12;25.63;;;8.63;;
38162;SDS011;23977;53.078;18.248;2024-02-21T02:56:38;26.05;;;8.77;;
38162;SDS011;23977;53.078;18.248;2024-02-21T02:59:04;24.33;;;8.80;;
38162;SDS011;23977;53.078;18.248;2024-02-21T03:01:32;27.42;;;9.05;;
38162;SDS011;23977;53.078;18.248;2024-02-21T03:03:59;25.77;;;9.23;;
38162;SDS011;23977;53.078;18.248;2024-02-21T03:06:25;22.42;;;8.90;;
38162;SDS011;23977;53.078;18.248;2024-02-21T03:08:50;23.85;;;8.75;;
38162;SDS011;23977;53.078;18.248;2024-02-21T03:11:20;24.30;;;8.90;;
38162;SDS011;23977;53.078;18.248;2024-02-21T03:13:46;24.27;;;8.10;;
38162;SDS011;23977;53.078;18.248;2024-02-21T03:16:12;21.98;;;8.70;;
38162;SDS011;23977;53.078;18.248;2024-02-21T03:18:37;28.27;;;8.82;;
38162;SDS011;23977;53.078;18.248;2024-02-21T03:21:03;23.75;;;8.98;;
38162;SDS011;23977;53.078;18.248;2024-02-21T03:23:29;24.88;;;8.65;;
38162;SDS011;23977;53.078;18.248;2024-02-21T03:25:54;29.80;;;9.38;;
38162;SDS011;23977;53.078;18.248;2024-02-21T03:28:20;23.48;;;8.82;;
38162;SDS011;23977;53.078;18.248;2024-02-21T03:30:45;28.02;;;9.25;;
38162;SDS011;23977;53.078;18.248;2024-02-21T03:33:11;25.48;;;8.98;;
38162;SDS011;23977;53.078;18.248;2024-02-21T03:35:37;27.38;;;9.45;;
38162;SDS011;23977;53.078;18.248;2024-02-21T03:38:03;26.00;;;8.93;;
38162;SDS011;23977;53.078;18.248;2024-02-21T03:40:28;22.85;;;8.43;;
38162;SDS011;23977;53.078;18.248;2024-02-21T03:42:54;31.95;;;9.77;;
38162;SDS011;23977;53.078;18.248;2024-02-21T03:45:19;22.95;;;9.35;;
38162;SDS011;23977;53.078;18.248;2024-02-21T03:47:45;25.75;;;9.13;;
38162;SDS011;23977;53.078;18.248;2024-02-21T03:50:11;25.92;;;8.95;;
38162;SDS011;23977;53.078;18.248;2024-02-21T03:52:36;25.08;;;9.13;;
38162;SDS011;23977;53.078;18.248;2024-02-21T03:55:02;27.73;;;9.45;;
38162;SDS011;23977;53.078;18.248;2024-02-21T03:57:28;25.50;;;9.38;;
38162;SDS011;23977;53.078;18.248;2024-02-21T03:59:55;25.67;;;9.80;;
38162;SDS011;23977;53.078;18.248;2024-02-21T04:02:21;27.73;;;9.95;;
38162;SDS011;23977;53.078;18.248;2024-02-21T04:04:46;26.05;;;9.00;;
38162;SDS011;23977;53.078;18.248;2024-02-21T04:07:13;24.13;;;9.18;;
38162;SDS011;23977;53.078;18.248;2024-02-21T04:09:40;26.10;;;9.60;;
38162;SDS011;23977;53.078;18.248;2024-02-21T04:12:07;25.10;;;9.30;;
38162;SDS011;23977;53.078;18.248;2024-02-21T04:14:33;27.90;;;9.40;;
38162;SDS011;23977;53.078;18.248;2024-02-21T04:17:00;25.15;;;10.07;;
38162;SDS011;23977;53.078;18.248;2024-02-21T04:19:25;24.65;;;9.00;;
38162;SDS011;23977;53.078;18.248;2024-02-21T04:21:52;24.15;;;9.18;;
38162;SDS011;23977;53.078;18.248;2024-02-21T04:24:17;23.33;;;9.38;;
38162;SDS011;23977;53.078;18.248;2024-02-21T04:26:43;23.98;;;9.20;;
38162;SDS011;23977;53.078;18.248;2024-02-21T04:29:09;21.95;;;9.15;;
38162;SDS011;23977;53.078;18.248;2024-02-21T04:31:34;22.58;;;9.30;;
38162;SDS011;23977;53.078;18.248;2024-02-21T04:34:00;22.17;;;9.07;;
38162;SDS011;23977;53.078;18.248;2024-02-21T04:36:26;22.08;;;9.15;;
38162;SDS011;23977;53.078;18.248;2024-02-21T04:38:51;20.35;;;9.63;;
38162;SDS011;23977;53.078;18.248;2024-02-21T04:41:17;25.33;;;10.32;;
38162;SDS011;23977;53.078;18.248;2024-02-21T04:43:43;26.23;;;9.93;;
38162;SDS011;23977;53.078;18.248;2024-02-21T04:46:09;24.13;;;9.65;;
38162;SDS011;23977;53.078;18.248;2024-02-21T04:48:35;25.42;;;10.13;;
38162;SDS011;23977;53.078;18.248;2024-02-21T04:51:00;25.55;;;9.95;;
38162;SDS011;23977;53.078;18.248;2024-02-21T04:53:26;25.00;;;9.82;;
38162;SDS011;23977;53.078;18.248;2024-02-21T04:55:52;23.63;;;9.68;;
38162;SDS011;23977;53.078;18.248;2024-02-21T04:58:17;20.92;;;8.82;;
38162;SDS011;23977;53.078;18.248;2024-02-21T05:00:43;18.95;;;8.73;;
38162;SDS011;23977;53.078;18.248;2024-02-21T05:03:09;21.83;;;9.20;;
38162;SDS011;23977;53.078;18.248;2024-02-21T05:05:35;19.50;;;8.80;;
38162;SDS011;23977;53.078;18.248;2024-02-21T05:08:01;20.55;;;8.95;;
38162;SDS011;23977;53.078;18.248;2024-02-21T05:10:27;24.98;;;9.65;;
38162;SDS011;23977;53.078;18.248;2024-02-21T05:12:52;21.63;;;8.95;;
38162;SDS011;23977;53.078;18.248;2024-02-21T05:15:18;20.40;;;8.90;;
38162;SDS011;23977;53.078;18.248;2024-02-21T05:17:43;20.02;;;9.75;;
38162;SDS011;23977;53.078;18.248;2024-02-21T05:20:09;20.33;;;9.10;;
38162;SDS011;23977;53.078;18.248;2024-02-21T05:22:35;19.20;;;8.98;;
38162;SDS011;23977;53.078;18.248;2024-02-21T05:25:01;23.50;;;9.75;;
38162;SDS011;23977;53.078;18.248;2024-02-21T05:27:27;20.98;;;9.40;;
38162;SDS011;23977;53.078;18.248;2024-02-21T05:29:53;22.05;;;8.88;;
38162;SDS011;23977;53.078;18.248;2024-02-21T05:32:19;22.10;;;8.77;;
38162;SDS011;23977;53.078;18.248;2024-02-21T05:34:48;18.73;;;8.60;;
38162;SDS011;23977;53.078;18.248;2024-02-21T05:37:14;20.35;;;8.55;;
38162;SDS011;23977;53.078;18.248;2024-02-21T05:39:40;22.73;;;9.02;;
38162;SDS011;23977;53.078;18.248;2024-02-21T05:42:06;17.98;;;8.18;;
38162;SDS011;23977;53.078;18.248;2024-02-21T05:44:32;21.20;;;8.88;;
38162;SDS011;23977;53.078;18.248;2024-02-21T05:46:58;19.35;;;8.27;;
38162;SDS011;23977;53.078;18.248;2024-02-21T05:49:23;17.17;;;8.38;;
38162;SDS011;23977;53.078;18.248;2024-02-21T05:51:49;19.90;;;9.07;;
38162;SDS011;23977;53.078;18.248;2024-02-21T05:54:15;20.42;;;8.40;;
38162;SDS011;23977;53.078;18.248;2024-02-21T05:56:44;21.77;;;8.80;;
38162;SDS011;23977;53.078;18.248;2024-02-21T05:59:11;19.50;;;8.80;;
38162;SDS011;23977;53.078;18.248;2024-02-21T06:01:37;21.00;;;9.20;;
38162;SDS011;23977;53.078;18.248;2024-02-21T06:04:02;19.77;;;9.00;;
38162;SDS011;23977;53.078;18.248;2024-02-21T06:06:29;19.42;;;8.98;;
38162;SDS011;23977;53.078;18.248;2024-02-21T06:08:55;20.23;;;8.93;;
38162;SDS011;23977;53.078;18.248;2024-02-21T06:11:21;23.35;;;9.15;;
38162;SDS011;23977;53.078;18.248;2024-02-21T06:13:47;24.90;;;10.18;;
38162;SDS011;23977;53.078;18.248;2024-02-21T06:16:12;23.85;;;10.18;;
38162;SDS011;23977;53.078;18.248;2024-02-21T06:18:38;22.42;;;10.18;;
38162;SDS011;23977;53.078;18.248;2024-02-21T06:21:04;22.67;;;10.25;;
38162;SDS011;23977;53.078;18.248;2024-02-21T06:23:30;24.90;;;10.75;;
38162;SDS011;23977;53.078;18.248;2024-02-21T06:25:55;23.40;;;10.45;;
38162;SDS011;23977;53.078;18.248;2024-02-21T06:28:21;23.70;;;11.10;;
38162;SDS011;23977;53.078;18.248;2024-02-21T06:30:47;24.60;;;11.90;;
38162;SDS011;23977;53.078;18.248;2024-02-21T06:33:12;27.20;;;11.90;;
38162;SDS011;23977;53.078;18.248;2024-02-21T06:35:38;22.73;;;11.55;;
38162;SDS011;23977;53.078;18.248;2024-02-21T06:38:06;23.52;;;11.73;;
38162;SDS011;23977;53.078;18.248;2024-02-21T06:40:32;28.73;;;12.68;;
38162;SDS011;23977;53.078;18.248;2024-02-21T06:43:04;27.55;;;12.63;;
38162;SDS011;23977;53.078;18.248;2024-02-21T06:45:30;26.70;;;12.35;;
38162;SDS011;23977;53.078;18.248;2024-02-21T06:47:57;25.40;;;11.82;;
38162;SDS011;23977;53.078;18.248;2024-02-21T06:50:22;25.85;;;11.60;;
38162;SDS011;23977;53.078;18.248;2024-02-21T06:52:48;24.33;;;11.20;;
38162;SDS011;23977;53.078;18.248;2024-02-21T06:55:14;26.23;;;11.38;;
38162;SDS011;23977;53.078;18.248;2024-02-21T06:57:39;23.48;;;10.65;;
38162;SDS011;23977;53.078;18.248;2024-02-21T07:00:05;29.20;;;11.60;;
38162;SDS011;23977;53.078;18.248;2024-02-21T07:02:33;27.50;;;11.57;;
38162;SDS011;23977;53.078;18.248;2024-02-21T07:04:59;24.80;;;10.65;;
38162;SDS011;23977;53.078;18.248;2024-02-21T07:07:25;28.52;;;11.38;;
38162;SDS011;23977;53.078;18.248;2024-02-21T07:09:50;28.08;;;12.70;;
38162;SDS011;23977;53.078;18.248;2024-02-21T07:12:17;24.75;;;12.05;;
38162;SDS011;23977;53.078;18.248;2024-02-21T07:14:42;26.73;;;12.18;;
38162;SDS011;23977;53.078;18.248;2024-02-21T07:17:08;30.48;;;11.38;;
38162;SDS011;23977;53.078;18.248;2024-02-21T07:19:33;28.42;;;12.00;;
38162;SDS011;23977;53.078;18.248;2024-02-21T07:22:01;28.10;;;12.07;;
38162;SDS011;23977;53.078;18.248;2024-02-21T07:24:26;24.70;;;12.13;;
38162;SDS011;23977;53.078;18.248;2024-02-21T07:26:52;26.05;;;12.10;;
38162;SDS011;23977;53.078;18.248;2024-02-21T07:29:18;25.73;;;11.10;;
38162;SDS011;23977;53.078;18.248;2024-02-21T07:31:44;23.35;;;11.00;;
38162;SDS011;23977;53.078;18.248;2024-02-21T07:34:10;25.55;;;10.82;;
38162;SDS011;23977;53.078;18.248;2024-02-21T07:36:36;30.92;;;12.13;;
38162;SDS011;23977;53.078;18.248;2024-02-21T07:39:05;26.63;;;11.68;;
38162;SDS011;23977;53.078;18.248;2024-02-21T07:41:31;22.50;;;10.85;;
38162;SDS011;23977;53.078;18.248;2024-02-21T07:43:57;25.65;;;11.55;;
38162;SDS011;23977;53.078;18.248;2024-02-21T07:46:23;23.80;;;11.75;;
38162;SDS011;23977;53.078;18.248;2024-02-21T07:48:49;24.73;;;10.93;;
38162;SDS011;23977;53.078;18.248;2024-02-21T07:51:16;26.98;;;10.63;;
38162;SDS011;23977;53.078;18.248;2024-02-21T07:53:43;21.30;;;11.10;;
38162;SDS011;23977;53.078;18.248;2024-02-21T07:56:11;23.95;;;12.50;;
38162;SDS011;23977;53.078;18.248;2024-02-21T07:58:37;29.25;;;11.18;;
38162;SDS011;23977;53.078;18.248;2024-02-21T08:01:03;25.80;;;10.90;;
38162;SDS011;23977;53.078;18.248;2024-02-21T08:03:28;26.75;;;11.82;;
38162;SDS011;23977;53.078;18.248;2024-02-21T08:05:55;23.23;;;11.27;;
38162;SDS011;23977;53.078;18.248;2024-02-21T08:08:20;27.25;;;11.05;;
38162;SDS011;23977;53.078;18.248;2024-02-21T08:10:50;23.95;;;10.68;;
38162;SDS011;23977;53.078;18.248;2024-02-21T08:13:16;21.17;;;10.48;;
38162;SDS011;23977;53.078;18.248;2024-02-21T08:15:41;23.70;;;10.13;;
38162;SDS011;23977;53.078;18.248;2024-02-21T08:18:08;23.17;;;10.18;;
38162;SDS011;23977;53.078;18.248;2024-02-21T08:20:34;24.88;;;9.82;;
38162;SDS011;23977;53.078;18.248;2024-02-21T08:23:00;23.77;;;9.40;;
38162;SDS011;23977;53.078;18.248;2024-02-21T08:25:26;25.30;;;9.65;;
38162;SDS011;23977;53.078;18.248;2024-02-21T08:27:55;22.38;;;10.00;;
38162;SDS011;23977;53.078;18.248;2024-02-21T08:30:22;21.58;;;9.80;;
38162;SDS011;23977;53.078;18.248;2024-02-21T08:32:48;22.40;;;9.35;;
38162;SDS011;23977;53.078;18.248;2024-02-21T08:35:13;18.95;;;9.35;;
38162;SDS011;23977;53.078;18.248;2024-02-21T08:37:39;20.75;;;9.98;;
38162;SDS011;23977;53.078;18.248;2024-02-21T08:40:05;20.33;;;9.05;;
38162;SDS011;23977;53.078;18.248;2024-02-21T08:42:35;21.42;;;10.32;;
38162;SDS011;23977;53.078;18.248;2024-02-21T08:45:02;24.05;;;9.50;;
38162;SDS011;23977;53.078;18.248;2024-02-21T08:47:28;17.25;;;8.90;;
38162;SDS011;23977;53.078;18.248;2024-02-21T08:49:54;18.10;;;8.88;;
38162;SDS011;23977;53.078;18.248;2024-02-21T08:52:20;21.25;;;9.52;;
38162;SDS011;23977;53.078;18.248;2024-02-21T08:54:45;19.73;;;8.90;;
38162;SDS011;23977;53.078;18.248;2024-02-21T08:57:11;18.85;;;9.05;;
38162;SDS011;23977;53.078;18.248;2024-02-21T08:59:39;21.00;;;9.70;;
38162;SDS011;23977;53.078;18.248;2024-02-21T09:02:05;18.80;;;8.77;;
38162;SDS011;23977;53.078;18.248;2024-02-21T09:04:32;17.92;;;8.60;;
38162;SDS011;23977;53.078;18.248;2024-02-21T09:06:58;17.42;;;9.27;;
38162;SDS011;23977;53.078;18.248;2024-02-21T09:09:24;19.90;;;10.07;;
38162;SDS011;23977;53.078;18.248;2024-02-21T09:11:50;20.75;;;10.90;;
38162;SDS011;23977;53.078;18.248;2024-02-21T09:14:16;28.25;;;14.88;;
38162;SDS011;23977;53.078;18.248;2024-02-21T09:16:42;24.70;;;12.35;;
38162;SDS011;23977;53.078;18.248;2024-02-21T09:19:08;23.55;;;9.85;;
38162;SDS011;23977;53.078;18.248;2024-02-21T09:21:39;20.33;;;10.18;;
38162;SDS011;23977;53.078;18.248;2024-02-21T09:24:05;21.48;;;10.30;;
38162;SDS011;23977;53.078;18.248;2024-02-21T09:26:31;23.02;;;10.35;;
38162;SDS011;23977;53.078;18.248;2024-02-21T09:28:57;19.10;;;9.98;;
38162;SDS011;23977;53.078;18.248;2024-02-21T09:31:23;20.30;;;10.27;;
38162;SDS011;23977;53.078;18.248;2024-02-21T09:33:48;22.77;;;10.23;;
38162;SDS011;23977;53.078;18.248;2024-02-21T09:36:14;21.35;;;9.90;;
38162;SDS011;23977;53.078;18.248;2024-02-21T09:38:40;20.58;;;9.85;;
38162;SDS011;23977;53.078;18.248;2024-02-21T09:43:50;19.50;;;10.48;;
38162;SDS011;23977;53.078;18.248;2024-02-21T09:46:19;24.05;;;10.13;;
38162;SDS011;23977;53.078;18.248;2024-02-21T09:51:21;25.90;;;11.80;;
38162;SDS011;23977;53.078;18.248;2024-02-21T09:53:47;24.38;;;11.93;;
38162;SDS011;23977;53.078;18.248;2024-02-21T09:56:14;23.30;;;11.95;;
38162;SDS011;23977;53.078;18.248;2024-02-21T09:58:39;22.63;;;12.10;;
38162;SDS011;23977;53.078;18.248;2024-02-21T10:01:09;20.55;;;10.52;;
38162;SDS011;23977;53.078;18.248;2024-02-21T10:03:35;22.30;;;10.70;;
38162;SDS011;23977;53.078;18.248;2024-02-21T10:06:01;24.05;;;12.32;;
38162;SDS011;23977;53.078;18.248;2024-02-21T10:08:28;23.80;;;11.68;;
38162;SDS011;23977;53.078;18.248;2024-02-21T10:10:54;18.27;;;10.77;;
38162;SDS011;23977;53.078;18.248;2024-02-21T10:13:30;24.13;;;11.95;;
38162;SDS011;23977;53.078;18.248;2024-02-21T10:16:03;20.70;;;11.45;;
38162;SDS011;23977;53.078;18.248;2024-02-21T10:18:33;27.98;;;13.75;;
38162;SDS011;23977;53.078;18.248;2024-02-21T10:21:03;22.63;;;12.00;;
38162;SDS011;23977;53.078;18.248;2024-02-21T10:23:43;20.23;;;11.63;;
38162;SDS011;23977;53.078;18.248;2024-02-21T10:26:19;20.20;;;11.52;;
38162;SDS011;23977;53.078;18.248;2024-02-21T10:28:45;19.83;;;10.63;;
38162;SDS011;23977;53.078;18.248;2024-02-21T10:31:23;22.60;;;11.95;;
38162;SDS011;23977;53.078;18.248;2024-02-21T10:33:53;22.85;;;11.40;;
38162;SDS011;23977;53.078;18.248;2024-02-21T10:36:23;18.98;;;10.45;;
38162;SDS011;23977;53.078;18.248;2024-02-21T10:38:52;19.45;;;10.20;;
38162;SDS011;23977;53.078;18.248;2024-02-21T10:41:20;16.20;;;10.18;;
38162;SDS011;23977;53.078;18.248;2024-02-21T10:43:49;18.55;;;9.93;;
38162;SDS011;23977;53.078;18.248;2024-02-21T10:46:20;17.00;;;9.95;;
38162;SDS011;23977;53.078;18.248;2024-02-21T10:48:48;16.77;;;9.88;;
38162;SDS011;23977;53.078;18.248;2024-02-21T10:51:28;15.63;;;9.77;;
38162;SDS011;23977;53.078;18.248;2024-02-21T10:54:04;15.00;;;9.70;;
38162;SDS011;23977;53.078;18.248;2024-02-21T10:56:46;18.25;;;10.13;;
38162;SDS011;23977;53.078;18.248;2024-02-21T10:59:15;18.27;;;9.85;;
38162;SDS011;23977;53.078;18.248;2024-02-21T11:01:43;17.42;;;9.95;;
38162;SDS011;23977;53.078;18.248;2024-02-21T11:04:09;19.48;;;10.50;;
38162;SDS011;23977;53.078;18.248;2024-02-21T11:06:38;17.42;;;10.43;;
38162;SDS011;23977;53.078;18.248;2024-02-21T11:09:06;19.05;;;10.55;;
38162;SDS011;23977;53.078;18.248;2024-02-21T11:11:43;19.10;;;10.93;;
38162;SDS011;23977;53.078;18.248;2024-02-21T11:16:38;17.98;;;10.38;;
38162;SDS011;23977;53.078;18.248;2024-02-21T11:19:08;17.08;;;10.75;;
38162;SDS011;23977;53.078;18.248;2024-02-21T11:21:50;19.40;;;10.40;;
38162;SDS011;23977;53.078;18.248;2024-02-21T11:24:32;18.10;;;10.55;;
38162;SDS011;23977;53.078;18.248;2024-02-21T11:27:09;17.92;;;10.43;;
38162;SDS011;23977;53.078;18.248;2024-02-21T11:29:40;17.48;;;10.40;;
38162;SDS011;23977;53.078;18.248;2024-02-21T11:32:09;17.73;;;9.90;;
38162;SDS011;23977;53.078;18.248;2024-02-21T11:34:36;17.83;;;10.13;;
38162;SDS011;23977;53.078;18.248;2024-02-21T11:37:02;19.10;;;10.07;;
38162;SDS011;23977;53.078;18.248;2024-02-21T11:39:39;17.33;;;9.77;;
38162;SDS011;23977;53.078;18.248;2024-02-21T11:42:06;16.17;;;9.88;;
38162;SDS011;23977;53.078;18.248;2024-02-21T11:44:33;15.15;;;9.40;;
38162;SDS011;23977;53.078;18.248;2024-02-21T11:47:00;19.30;;;9.95;;
38162;SDS011;23977;53.078;18.248;2024-02-21T11:49:30;16.38;;;9.30;;
38162;SDS011;23977;53.078;18.248;2024-02-21T11:52:02;15.63;;;9.38;;
38162;SDS011;23977;53.078;18.248;2024-02-21T11:54:32;15.35;;;9.77;;
38162;SDS011;23977;53.078;18.248;2024-02-21T11:56:59;17.60;;;11.25;;
38162;SDS011;23977;53.078;18.248;2024-02-21T11:59:26;18.60;;;11.32;;
38162;SDS011;23977;53.078;18.248;2024-02-21T12:01:52;17.80;;;11.10;;
38162;SDS011;23977;53.078;18.248;2024-02-21T12:04:21;16.38;;;10.88;;
38162;SDS011;23977;53.078;18.248;2024-02-21T12:06:49;16.02;;;9.77;;
38162;SDS011;23977;53.078;18.248;2024-02-21T12:09:15;19.13;;;11.25;;
38162;SDS011;23977;53.078;18.248;2024-02-21T12:11:42;17.00;;;10.05;;
38162;SDS011;23977;53.078;18.248;2024-02-21T12:14:09;16.85;;;9.77;;
38162;SDS011;23977;53.078;18.248;2024-02-21T12:16:35;15.48;;;9.88;;
38162;SDS011;23977;53.078;18.248;2024-02-21T12:19:04;17.23;;;10.57;;
38162;SDS011;23977;53.078;18.248;2024-02-21T12:21:30;17.27;;;10.93;;
38162;SDS011;23977;53.078;18.248;2024-02-21T12:24:10;17.00;;;10.65;;
38162;SDS011;23977;53.078;18.248;2024-02-21T12:26:40;17.90;;;10.73;;
38162;SDS011;23977;53.078;18.248;2024-02-21T12:29:06;18.13;;;10.57;;
38162;SDS011;23977;53.078;18.248;2024-02-21T12:31:38;17.05;;;9.85;;
38162;SDS011;23977;53.078;18.248;2024-02-21T12:34:04;19.25;;;11.18;;
38162;SDS011;23977;53.078;18.248;2024-02-21T12:36:31;17.10;;;10.88;;
38162;SDS011;23977;53.078;18.248;2024-02-21T12:38:57;21.23;;;10.48;;
38162;SDS011;23977;53.078;18.248;2024-02-21T12:41:23;18.60;;;10.45;;
38162;SDS011;23977;53.078;18.248;2024-02-21T12:43:51;18.55;;;10.55;;
38162;SDS011;23977;53.078;18.248;2024-02-21T12:46:16;17.50;;;10.40;;
38162;SDS011;23977;53.078;18.248;2024-02-21T12:48:42;15.98;;;9.93;;
38162;SDS011;23977;53.078;18.248;2024-02-21T12:51:08;17.63;;;10.80;;
38162;SDS011;23977;53.078;18.248;2024-02-21T12:53:33;18.65;;;11.20;;
38162;SDS011;23977;53.078;18.248;2024-02-21T12:56:05;17.95;;;11.45;;
38162;SDS011;23977;53.078;18.248;2024-02-21T12:58:35;18.45;;;12.35;;
38162;SDS011;23977;53.078;18.248;2024-02-21T13:01:01;17.80;;;10.68;;
38162;SDS011;23977;53.078;18.248;2024-02-21T13:03:27;21.48;;;12.30;;
38162;SDS011;23977;53.078;18.248;2024-02-21T13:05:53;17.17;;;10.65;;
38162;SDS011;23977;53.078;18.248;2024-02-21T13:08:18;18.90;;;11.27;;
38162;SDS011;23977;53.078;18.248;2024-02-21T13:10:47;17.50;;;10.73;;
38162;SDS011;23977;53.078;18.248;2024-02-21T13:13:14;19.23;;;11.38;;
38162;SDS011;23977;53.078;18.248;2024-02-21T13:15:40;18.30;;;10.68;;
38162;SDS011;23977;53.078;18.248;2024-02-21T13:18:10;18.38;;;10.77;;
38162;SDS011;23977;53.078;18.248;2024-02-21T13:20:36;17.17;;;11.27;;
38162;SDS011;23977;53.078;18.248;2024-02-21T13:23:02;20.98;;;12.05;;
38162;SDS011;23977;53.078;18.248;2024-02-21T13:25:29;20.60;;;11.45;;
38162;SDS011;23977;53.078;18.248;2024-02-21T13:27:55;18.83;;;11.18;;
38162;SDS011;23977;53.078;18.248;2024-02-21T13:30:21;18.77;;;11.25;;
38162;SDS011;23977;53.078;18.248;2024-02-21T13:32:48;17.58;;;10.85;;
38162;SDS011;23977;53.078;18.248;2024-02-21T13:35:14;22.73;;;11.27;;
38162;SDS011;23977;53.078;18.248;2024-02-21T13:37:40;19.75;;;10.32;;
38162;SDS011;23977;53.078;18.248;2024-02-21T13:40:07;19.85;;;10.80;;
38162;SDS011;23977;53.078;18.248;2024-02-21T13:42:36;18.27;;;10.35;;
38162;SDS011;23977;53.078;18.248;2024-02-21T13:45:03;16.10;;;9.77;;
38162;SDS011;23977;53.078;18.248;2024-02-21T13:47:30;16.92;;;10.05;;
38162;SDS011;23977;53.078;18.248;2024-02-21T13:49:57;17.58;;;10.52;;
38162;SDS011;23977;53.078;18.248;2024-02-21T13:52:22;17.42;;;9.93;;
38162;SDS011;23977;53.078;18.248;2024-02-21T13:54:52;19.80;;;10.45;;
38162;SDS011;23977;53.078;18.248;2024-02-21T13:57:17;16.70;;;10.20;;
38162;SDS011;23977;53.078;18.248;2024-02-21T13:59:44;17.73;;;10.07;;
38162;SDS011;23977;53.078;18.248;2024-02-21T14:02:09;18.63;;;10.60;;
38162;SDS011;23977;53.078;18.248;2024-02-21T14:04:35;21.33;;;10.77;;
38162;SDS011;23977;53.078;18.248;2024-02-21T14:07:01;19.75;;;10.88;;
38162;SDS011;23977;53.078;18.248;2024-02-21T14:09:27;14.75;;;9.73;;
38162;SDS011;23977;53.078;18.248;2024-02-21T14:11:57;17.15;;;10.70;;
38162;SDS011;23977;53.078;18.248;2024-02-21T14:14:24;18.83;;;10.63;;
38162;SDS011;23977;53.078;18.248;2024-02-21T14:16:49;17.45;;;10.98;;
38162;SDS011;23977;53.078;18.248;2024-02-21T14:19:15;18.52;;;11.10;;
38162;SDS011;23977;53.078;18.248;2024-02-21T14:21:41;19.83;;;11.13;;